Aviation Digital Data Service (ADDS)

Output produced by METARs form (2009 UTC 18 April 2021)
found at http://www.aviationweather.gov/metar/data/
 
Forecast for: EKBI (BILLUND AIRPORT , DK)
Text: TAF EKBI 181705Z 1818/1918 09008KT CAVOK
Forecast period: 1800 UTC 18 April 2021 to 1800 UTC 19 April 2021
Forecast type: FROM: standard forecast or significant change
Winds: from the E (90 degrees) at 9 MPH (8 knots; 4.1 m/s)
Visibility: 6 or more miles (10+ km)
Ceiling: unknown
Clouds: missing
Weather: NSW  (no significant weather)